Time;durP1;ratioP1;P1;durP2;ratioP2;P2;SDS_P1;SDS_P2;PMS_P1;PMS_P2;Temp;Humidity;BMP_temperature;BMP_pressure;BME280_temperature;BME280_humidity;BME280_pressure;Samples;Min_cycle;Max_cycle;Signal;HPM_P1;HPM_P2
2023/01/17 00:00:11;;;;;;;0.50;0.50;;;;;;;8.07;63.28;97496.22;4908915;28;97470;-50
2023/01/17 00:02:36;;;;;;;0.93;0.87;;;;;;;8.08;63.43;97496.94;4907086;28;97247;-50
2023/01/17 00:10:31;;;;;;;2.40;0.67;;;;;;;7.89;63.65;97500.06;4910022;28;96861;-51
2023/01/17 00:12:58;;;;;;;0.67;0.67;;;;;;;7.88;64.00;97498.63;4915714;28;96767;-52
2023/01/17 00:15:25;;;;;;;0.80;0.80;;;;;;;7.87;63.89;97497.16;4908777;28;97318;-51
2023/01/17 00:17:52;;;;;;;0.90;0.90;;;;;;;7.85;63.66;97496.25;4913199;28;97354;-50
2023/01/17 00:26:04;;;;;;;1.17;1.10;;;;;;;7.83;63.58;97501.53;4912237;28;97349;-51
2023/01/17 01:35:35;;;;;;;3.50;3.30;;;;;;;7.70;64.81;97526.34;4919708;28;97191;-51
2023/01/17 01:38:01;;;;;;;3.30;3.07;;;;;;;7.71;64.60;97530.56;4919353;28;97071;-51
2023/01/17 01:40:26;;;;;;;4.00;3.70;;;;;;;7.71;64.77;97528.53;4917603;28;96757;-51
2023/01/17 01:42:57;;;;;;;3.63;3.33;;;;;;;7.67;65.07;97538.38;4915734;28;97354;-51
2023/01/17 01:45:31;;;;;;;3.77;3.47;;;;;;;7.70;65.05;97540.03;4910463;28;97052;-51
2023/01/17 01:48:41;;;;;;;3.73;3.43;;;;;;;7.69;65.47;97531.09;4911509;28;97064;-50
2023/01/17 01:51:10;;;;;;;2.73;2.53;;;;;;;7.64;65.25;97534.75;4913021;28;97423;-51
2023/01/17 01:53:39;;;;;;;7.00;3.10;;;;;;;7.63;64.99;97536.03;4908605;28;97033;-50
2023/01/17 01:56:08;;;;;;;3.60;3.10;;;;;;;7.66;64.91;97537.69;4912699;28;97172;-51
2023/01/17 01:58:35;;;;;;;3.87;3.47;;;;;;;7.66;64.97;97542.41;4911355;28;97123;-50
2023/01/17 02:01:01;;;;;;;3.10;2.90;;;;;;;7.67;64.97;97543.84;4908547;28;97115;-53
2023/01/17 02:03:31;;;;;;;4.10;3.80;;;;;;;7.67;65.22;97549.34;4913493;28;96899;-51
2023/01/17 02:06:13;;;;;;;2.80;2.60;;;;;;;7.65;65.22;97557.34;4913047;28;97750;-51
2023/01/17 02:08:39;;;;;;;2.50;2.40;;;;;;;7.56;65.10;97556.63;4908949;28;96989;-51
2023/01/17 02:11:05;;;;;;;2.80;2.60;;;;;;;7.53;65.12;97557.00;4915745;28;97158;-50
2023/01/17 02:13:31;;;;;;;3.17;2.97;;;;;;;7.51;65.19;97560.28;4918403;28;98837;-50
2023/01/17 02:16:08;;;;;;;3.40;2.90;;;;;;;7.49;65.41;97573.75;4909025;28;98376;-51
2023/01/17 02:18:39;;;;;;;3.17;2.97;;;;;;;7.44;65.47;97571.94;4910008;28;96826;-50
2023/01/17 02:21:24;;;;;;;3.33;3.03;;;;;;;7.39;65.53;97572.13;4910279;28;96971;-50
2023/01/17 02:23:53;;;;;;;3.70;3.20;;;;;;;7.32;65.26;97570.09;4911155;28;98728;-50
2023/01/17 02:26:46;;;;;;;3.70;3.30;;;;;;;7.29;65.61;97571.94;4915316;28;96659;-50
2023/01/17 02:29:33;;;;;;;2.90;2.70;;;;;;;7.30;65.14;97583.56;4913460;28;97116;-50
2023/01/17 02:32:26;;;;;;;3.30;3.00;;;;;;;7.29;65.28;97582.13;4910969;28;97278;-50
2023/01/17 02:35:04;;;;;;;3.40;3.10;;;;;;;7.26;65.41;97583.94;4908263;28;97122;-50
2023/01/17 02:37:43;;;;;;;3.00;2.77;;;;;;;7.25;65.49;97584.50;4909832;28;97815;-50
2023/01/17 02:40:30;;;;;;;3.47;3.00;;;;;;;7.24;65.52;97588.50;4908649;28;97215;-50
2023/01/17 02:43:04;;;;;;;3.67;3.37;;;;;;;7.23;65.42;97585.03;4911353;28;97199;-51
2023/01/17 02:45:29;;;;;;;2.67;2.47;;;;;;;7.21;65.22;97587.56;4909787;28;96970;-50
2023/01/17 02:47:55;;;;;;;2.37;2.23;;;;;;;7.19;65.11;97594.84;4912868;28;97093;-50
2023/01/17 02:50:25;;;;;;;2.83;2.63;;;;;;;7.18;65.54;97593.41;4908958;28;97114;-50
2023/01/17 02:53:24;;;;;;;3.23;2.80;;;;;;;7.16;65.64;97602.16;4910571;28;98473;-50
2023/01/17 02:56:01;;;;;;;2.80;2.57;;;;;;;7.17;65.53;97620.00;4909770;28;97139;-50
2023/01/17 02:58:46;;;;;;;2.60;2.40;;;;;;;7.17;65.36;97605.59;4910620;28;97464;-50
2023/01/17 03:01:30;;;;;;;3.10;2.57;;;;;;;7.16;65.84;97607.63;4908377;28;97083;-50
2023/01/17 03:04:11;;;;;;;2.07;1.90;;;;;;;7.19;65.26;97605.78;4912537;28;97173;-50
2023/01/17 03:07:00;;;;;;;2.53;2.33;;;;;;;7.18;65.20;97605.06;4911467;28;97429;-49
2023/01/17 03:09:27;;;;;;;2.90;2.70;;;;;;;7.19;65.41;97611.97;4906074;28;97049;-50
2023/01/17 03:11:53;;;;;;;2.60;2.40;;;;;;;7.19;65.06;97611.25;4912378;28;96820;-50
2023/01/17 03:14:18;;;;;;;2.60;2.40;;;;;;;7.22;65.58;97621.09;4915007;28;97096;-50
2023/01/17 03:16:44;;;;;;;4.83;2.43;;;;;;;7.25;65.13;97620.75;4907891;28;98553;-50
2023/01/17 03:19:09;;;;;;;2.43;2.30;;;;;;;7.21;65.38;97631.31;4912985;28;97334;-50
2023/01/17 03:21:35;;;;;;;2.40;2.27;;;;;;;7.22;65.15;97621.84;4911631;28;97132;-50
2023/01/17 03:24:01;;;;;;;2.57;2.37;;;;;;;7.21;65.37;97628.56;4912116;28;96882;-50
2023/01/17 03:26:27;;;;;;;2.40;2.30;;;;;;;7.21;65.28;97634.03;4915201;28;97348;-50
2023/01/17 03:28:52;;;;;;;2.93;2.60;;;;;;;7.21;65.31;97639.50;4913264;28;97220;-50
2023/01/17 03:31:20;;;;;;;2.00;1.90;;;;;;;7.21;65.20;97646.97;4912155;28;96745;-50
2023/01/17 03:33:46;;;;;;;1.90;1.80;;;;;;;7.23;65.67;97653.34;4910136;28;97160;-50
2023/01/17 03:36:11;;;;;;;2.53;2.33;;;;;;;7.22;65.28;97654.66;4909097;28;97287;-50
2023/01/17 03:38:36;;;;;;;2.30;2.10;;;;;;;7.24;65.47;97670.50;4906612;28;97355;-49
2023/01/17 03:41:02;;;;;;;1.73;1.63;;;;;;;7.25;65.62;97664.47;4913431;28;96860;-50
2023/01/17 03:43:27;;;;;;;1.93;1.83;;;;;;;7.26;65.30;97671.44;4912409;28;97293;-50
2023/01/17 03:46:00;;;;;;;1.77;1.67;;;;;;;7.26;65.49;97676.91;4906850;28;97014;-50
2023/01/17 03:48:26;;;;;;;2.30;2.20;;;;;;;7.26;65.59;97681.63;4906994;28;97163;-49
2023/01/17 03:50:51;;;;;;;2.00;1.90;;;;;;;7.24;65.53;97686.91;4917870;28;96782;-50
2023/01/17 03:53:17;;;;;;;1.30;1.23;;;;;;;7.22;65.16;97698.38;4912377;28;96722;-50
2023/01/17 03:55:45;;;;;;;1.60;1.50;;;;;;;7.22;65.23;97692.19;4914105;28;97420;-50
2023/01/17 03:58:11;;;;;;;1.43;1.33;;;;;;;7.22;65.17;97689.44;4912150;28;97100;-49
2023/01/17 04:00:36;;;;;;;1.83;1.60;;;;;;;7.23;65.35;97699.13;4904116;28;97047;-50
2023/01/17 04:03:02;;;;;;;1.37;1.37;;;;;;;7.22;65.38;97698.38;4911754;28;96628;-50
2023/01/17 04:05:27;;;;;;;1.23;1.23;;;;;;;7.24;65.59;97695.84;4915392;28;98004;-50
2023/01/17 04:07:53;;;;;;;1.50;1.40;;;;;;;7.22;65.82;97703.84;4915443;28;97935;-49
2023/01/17 04:10:18;;;;;;;1.40;1.30;;;;;;;7.21;65.57;97704.38;4914458;28;98272;-50
2023/01/17 04:12:43;;;;;;;1.13;1.13;;;;;;;7.21;65.65;97701.63;4912202;28;98460;-50
2023/01/17 04:15:09;;;;;;;0.80;0.80;;;;;;;7.18;65.67;97703.47;4911346;28;98097;-50
2023/01/17 04:17:34;;;;;;;1.10;1.10;;;;;;;7.17;65.68;97693.06;4909361;28;97807;-50
2023/01/17 04:20:00;;;;;;;1.83;1.13;;;;;;;7.15;65.58;97698.34;4914789;28;97525;-50
2023/01/17 04:22:25;;;;;;;0.93;0.90;;;;;;;7.15;65.99;97701.81;4907854;28;97255;-50
2023/01/17 04:24:50;;;;;;;0.90;0.90;;;;;;;7.17;65.89;97701.25;4909885;28;97993;-50
2023/01/17 04:27:16;;;;;;;0.80;0.80;;;;;;;7.16;65.91;97706.03;4909828;28;97188;-50
2023/01/17 04:29:41;;;;;;;0.90;0.90;;;;;;;7.11;65.68;97720.56;4908520;28;97027;-50
2023/01/17 04:32:06;;;;;;;1.00;0.90;;;;;;;7.14;65.77;97713.28;4907368;28;96699;-50
2023/01/17 04:34:32;;;;;;;0.90;0.90;;;;;;;7.16;65.67;97719.69;4908150;28;97826;-50
2023/01/17 04:36:57;;;;;;;0.60;0.60;;;;;;;7.19;65.44;97717.84;4911123;28;96936;-50
2023/01/17 04:39:22;;;;;;;0.63;0.63;;;;;;;7.16;65.58;97716.94;4908144;28;97267;-49
2023/01/17 04:41:48;;;;;;;0.70;0.70;;;;;;;7.14;65.53;97721.50;4916451;28;97276;-53
2023/01/17 04:44:13;;;;;;;0.80;0.80;;;;;;;7.16;65.64;97729.88;4916973;28;97365;-50
2023/01/17 04:46:38;;;;;;;0.70;0.70;;;;;;;7.18;65.92;97733.53;4915203;28;97180;-50
2023/01/17 04:49:04;;;;;;;0.97;0.97;;;;;;;7.17;65.69;97745.72;4915528;28;97159;-50
2023/01/17 04:51:29;;;;;;;0.53;0.53;;;;;;;7.14;65.82;97741.34;4896006;28;97215;-50
2023/01/17 04:53:55;;;;;;;0.60;0.60;;;;;;;7.14;65.97;97746.81;4905182;28;97697;-50
2023/01/17 04:56:20;;;;;;;1.07;0.67;;;;;;;7.15;65.67;97744.81;4911643;28;97233;-50
2023/01/17 04:58:45;;;;;;;0.57;0.57;;;;;;;7.17;66.11;97753.19;4908056;28;97293;-50
2023/01/17 05:01:11;;;;;;;0.60;0.60;;;;;;;7.20;65.61;97760.34;4901726;28;97336;-50
2023/01/17 05:03:36;;;;;;;0.70;0.70;;;;;;;7.20;65.68;97769.28;4910429;28;97400;-50
2023/01/17 05:06:02;;;;;;;1.60;0.70;;;;;;;7.19;65.84;97767.06;4913654;28;97565;-51
2023/01/17 05:08:27;;;;;;;0.70;0.70;;;;;;;7.20;65.84;97776.72;4908688;28;96967;-50
2023/01/17 05:10:53;;;;;;;0.70;0.70;;;;;;;7.19;65.91;97776.00;4909078;28;97153;-50
2023/01/17 05:13:18;;;;;;;0.77;0.70;;;;;;;7.17;65.68;97791.47;4908318;28;97202;-50
2023/01/17 05:15:45;;;;;;;0.50;0.50;;;;;;;7.12;65.63;97798.53;4908114;28;96790;-50
2023/01/17 05:18:15;;;;;;;0.60;0.50;;;;;;;7.10;65.54;97797.63;4907237;28;97324;-50
2023/01/17 05:20:40;;;;;;;1.67;0.60;;;;;;;7.09;65.49;97810.56;4915231;28;96716;-51
2023/01/17 05:23:06;;;;;;;0.60;0.60;;;;;;;7.03;65.61;97815.47;4910975;28;97436;-51
2023/01/17 05:25:32;;;;;;;0.50;0.40;;;;;;;7.04;65.63;97821.63;4908777;28;97069;-50
2023/01/17 05:28:01;;;;;;;0.50;0.50;;;;;;;7.00;65.71;97818.50;4914372;28;96923;-49
2023/01/17 05:30:28;;;;;;;0.50;0.50;;;;;;;6.97;66.06;97831.25;4908542;28;97058;-50
2023/01/17 05:32:55;;;;;;;0.50;0.43;;;;;;;6.96;65.72;97854.38;4911810;28;98564;-50
2023/01/17 05:35:26;;;;;;;0.50;0.47;;;;;;;6.95;65.72;97847.44;4913745;28;97192;-50
2023/01/17 05:37:51;;;;;;;0.40;0.40;;;;;;;6.92;65.86;97851.25;4910926;28;97034;-50
2023/01/17 05:40:19;;;;;;;0.40;0.40;;;;;;;6.89;65.73;97846.84;4911669;28;97110;-50
2023/01/17 05:42:46;;;;;;;0.40;0.40;;;;;;;6.89;65.97;97865.97;4913520;28;96978;-50
2023/01/17 05:45:15;;;;;;;0.50;0.40;;;;;;;6.87;65.76;97882.19;4909853;28;97155;-50
2023/01/17 05:47:44;;;;;;;0.73;0.40;;;;;;;6.84;65.63;97885.97;4911239;28;97528;-50
2023/01/17 05:50:15;;;;;;;0.60;0.50;;;;;;;6.86;65.91;97883.44;4912593;28;97196;-50
2023/01/17 05:52:47;;;;;;;0.40;0.40;;;;;;;6.86;66.13;97890.91;4909784;28;97359;-49
2023/01/17 05:55:13;;;;;;;0.40;0.40;;;;;;;6.82;65.66;97902.91;4914403;28;97077;-50
2023/01/17 05:57:38;;;;;;;0.40;0.30;;;;;;;6.82;65.82;97907.63;4914970;28;96960;-50
2023/01/17 06:00:04;;;;;;;0.50;0.40;;;;;;;6.78;65.64;97907.22;4910356;28;97279;-50
2023/01/17 06:02:29;;;;;;;1.03;0.40;;;;;;;6.76;65.68;97915.97;4910717;28;98271;-50
2023/01/17 06:04:55;;;;;;;1.80;0.47;;;;;;;6.76;65.78;97924.16;4911918;28;97073;-50
2023/01/17 06:07:20;;;;;;;1.90;0.40;;;;;;;6.73;65.69;97921.75;4911768;28;96963;-50
2023/01/17 06:09:45;;;;;;;0.50;0.40;;;;;;;6.72;65.63;97925.75;4911519;28;96984;-50
2023/01/17 06:12:11;;;;;;;0.70;0.40;;;;;;;6.69;65.53;97938.47;4912963;28;97152;-50
2023/01/17 06:14:36;;;;;;;1.70;0.63;;;;;;;6.66;65.87;97928.59;4914628;28;96827;-50
2023/01/17 06:17:01;;;;;;;0.80;0.50;;;;;;;6.68;66.05;97934.25;4910547;28;96972;-50
2023/01/17 06:19:27;;;;;;;0.60;0.60;;;;;;;6.68;65.67;97947.91;4911525;28;96850;-50
2023/01/17 06:21:52;;;;;;;0.73;0.40;;;;;;;6.62;65.59;97941.84;4911977;28;97306;-50
2023/01/17 06:24:17;;;;;;;0.80;0.40;;;;;;;6.61;65.57;97980.63;4909783;28;97489;-50
2023/01/17 06:26:43;;;;;;;0.60;0.40;;;;;;;6.62;65.45;97960.22;4911331;28;96901;-50
2023/01/17 06:29:10;;;;;;;0.60;0.40;;;;;;;6.59;65.53;97977.69;4911450;28;97190;-50
2023/01/17 06:31:35;;;;;;;0.40;0.30;;;;;;;6.55;65.59;97975.28;4908370;28;97342;-50
2023/01/17 06:34:02;;;;;;;2.20;0.40;;;;;;;6.50;65.74;97981.59;4914255;28;97697;-50
2023/01/17 06:36:28;;;;;;;1.20;0.37;;;;;;;6.50;65.35;97986.31;4911108;28;96668;-50
2023/01/17 06:38:53;;;;;;;0.50;0.40;;;;;;;6.50;65.83;97998.00;4909597;28;97126;-50
2023/01/17 06:41:18;;;;;;;1.73;0.40;;;;;;;6.47;65.67;98001.78;4911187;28;97257;-49
2023/01/17 06:43:43;;;;;;;0.53;0.40;;;;;;;6.44;65.30;98016.50;4910661;28;99340;-50
2023/01/17 06:46:09;;;;;;;0.40;0.37;;;;;;;6.42;65.50;98021.00;4909427;28;97239;-50
2023/01/17 06:48:34;;;;;;;4.13;0.33;;;;;;;6.43;65.50;98022.47;4912471;28;96663;-50
2023/01/17 06:50:59;;;;;;;0.50;0.40;;;;;;;6.42;65.43;98029.91;4912183;28;97543;-50
2023/01/17 06:53:25;;;;;;;2.10;0.53;;;;;;;6.39;65.51;98036.44;4907644;28;97147;-50
2023/01/17 06:55:51;;;;;;;0.50;0.40;;;;;;;6.38;65.54;98039.69;4910177;28;97108;-50
2023/01/17 06:58:16;;;;;;;0.50;0.40;;;;;;;6.37;65.50;98047.16;4911868;28;97101;-50
2023/01/17 07:00:42;;;;;;;1.37;0.50;;;;;;;6.33;65.56;98054.94;4908960;28;97427;-50
2023/01/17 07:03:20;;;;;;;1.47;0.50;;;;;;;6.34;65.67;98058.38;4914531;28;98461;-50
2023/01/17 07:05:46;;;;;;;0.70;0.37;;;;;;;6.29;65.61;98065.41;4913023;28;96868;-50
2023/01/17 07:08:12;;;;;;;2.87;0.60;;;;;;;6.30;65.21;98071.63;4917608;28;96892;-50
2023/01/17 07:10:37;;;;;;;0.40;0.40;;;;;;;6.23;65.67;98088.63;4918428;28;97315;-50
2023/01/17 07:13:02;;;;;;;0.40;0.30;;;;;;;6.20;65.82;98079.50;4917726;28;97212;-50
2023/01/17 07:15:28;;;;;;;2.30;0.60;;;;;;;6.14;65.57;98091.78;4911712;28;96693;-50
2023/01/17 07:17:53;;;;;;;0.50;0.43;;;;;;;6.12;65.52;98088.81;4914014;28;97279;-50
2023/01/17 07:20:19;;;;;;;0.63;0.30;;;;;;;6.06;65.45;98108.03;4909121;28;96848;-50
2023/01/17 07:22:44;;;;;;;1.13;0.50;;;;;;;6.02;65.51;98105.63;4908861;28;97491;-50
2023/01/17 07:25:10;;;;;;;1.17;0.40;;;;;;;5.97;65.35;98113.88;4911510;28;97354;-50
2023/01/17 07:27:35;;;;;;;0.70;0.40;;;;;;;5.89;65.76;98116.50;4914089;28;97020;-50
2023/01/17 07:30:00;;;;;;;0.90;0.40;;;;;;;5.85;65.52;98116.06;4906787;28;97279;-50
2023/01/17 07:32:26;;;;;;;0.43;0.40;;;;;;;5.84;65.76;98125.50;4910257;28;97152;-50
2023/01/17 07:34:52;;;;;;;0.83;0.50;;;;;;;5.86;65.78;98133.16;4912839;28;96815;-51
2023/01/17 07:37:18;;;;;;;0.70;0.40;;;;;;;5.87;66.00;98132.66;4913434;28;96902;-50
2023/01/17 07:39:44;;;;;;;4.37;0.50;;;;;;;5.88;65.53;98131.41;4910363;28;97888;-49
2023/01/17 07:42:09;;;;;;;1.23;0.50;;;;;;;5.90;65.97;98136.31;4913529;28;97594;-50
2023/01/17 07:44:35;;;;;;;1.57;0.60;;;;;;;5.92;65.51;98136.53;4908363;28;97826;-50
2023/01/17 07:47:00;;;;;;;4.83;0.63;;;;;;;5.93;65.67;98148.94;4908796;28;96734;-50
2023/01/17 07:49:25;;;;;;;1.17;0.60;;;;;;;5.95;65.99;98155.34;4933212;28;97498;-52
2023/01/17 07:51:51;;;;;;;0.50;0.50;;;;;;;5.94;65.78;98153.16;4915281;28;97423;-50
2023/01/17 07:54:16;;;;;;;0.63;0.50;;;;;;;5.95;65.63;98158.06;4914451;28;96588;-50
2023/01/17 07:56:45;;;;;;;1.67;0.60;;;;;;;5.99;65.84;98158.50;4910240;28;96881;-50
2023/01/17 07:59:11;;;;;;;0.60;0.50;;;;;;;6.02;66.07;98154.00;4911868;28;97292;-50
2023/01/17 08:01:36;;;;;;;0.70;0.50;;;;;;;6.02;65.80;98162.19;4908201;28;97496;-50
2023/01/17 08:04:02;;;;;;;4.00;0.80;;;;;;;6.00;65.82;98165.44;4914856;28;97227;-50
2023/01/17 08:06:28;;;;;;;0.93;0.50;;;;;;;6.02;65.70;98168.38;4908314;28;97392;-50
2023/01/17 08:08:55;;;;;;;1.43;0.40;;;;;;;6.03;66.02;98163.63;4907655;28;97253;-50
2023/01/17 08:11:21;;;;;;;0.93;0.57;;;;;;;6.04;65.71;98162.41;4911753;28;97304;-50
2023/01/17 08:13:47;;;;;;;0.60;0.60;;;;;;;6.04;65.85;98176.03;4907661;28;97066;-50
2023/01/17 08:16:12;;;;;;;3.23;1.03;;;;;;;6.03;65.73;98178.03;4905160;28;97046;-50
2023/01/17 08:18:38;;;;;;;2.20;0.63;;;;;;;6.07;65.61;98177.00;4910686;28;97037;-50
2023/01/17 08:21:10;;;;;;;1.30;0.87;;;;;;;6.05;65.72;98175.50;4910100;28;97107;-50
2023/01/17 08:23:35;;;;;;;2.47;0.87;;;;;;;6.09;65.48;98177.94;4908212;28;97033;-50
2023/01/17 08:26:01;;;;;;;0.73;0.70;;;;;;;6.10;65.71;98178.66;4912960;28;97541;-50
2023/01/17 08:28:26;;;;;;;2.77;1.27;;;;;;;6.12;65.55;98184.34;4910391;28;96719;-50
2023/01/17 08:30:52;;;;;;;1.10;1.00;;;;;;;6.13;65.85;98186.56;4910112;28;96630;-50
2023/01/17 08:33:17;;;;;;;1.17;0.67;;;;;;;6.15;65.67;98199.69;4916591;28;97000;-50
2023/01/17 08:35:53;;;;;;;1.10;0.90;;;;;;;6.17;65.95;98194.44;4911890;28;97445;-50
2023/01/17 08:38:19;;;;;;;0.90;0.90;;;;;;;6.19;65.67;98200.09;4906621;28;97136;-50
2023/01/17 08:40:44;;;;;;;1.10;1.00;;;;;;;6.23;65.98;98208.72;4909770;28;97134;-51
2023/01/17 08:43:09;;;;;;;0.70;0.70;;;;;;;6.28;65.58;98218.81;4913076;28;97832;-50
2023/01/17 08:45:35;;;;;;;2.50;1.07;;;;;;;6.33;65.70;98212.53;4906878;28;97381;-50
2023/01/17 08:48:00;;;;;;;2.07;1.00;;;;;;;6.39;65.59;98211.19;4911006;28;97322;-50
2023/01/17 08:50:26;;;;;;;1.00;0.87;;;;;;;6.43;65.84;98217.06;4912717;28;97520;-50
2023/01/17 08:52:57;;;;;;;1.37;0.87;;;;;;;6.45;65.58;98222.00;4906111;28;97039;-50
2023/01/17 08:55:22;;;;;;;0.80;0.80;;;;;;;6.44;65.54;98226.75;4915548;28;97391;-50
2023/01/17 08:57:48;;;;;;;3.33;1.37;;;;;;;6.40;65.68;98229.03;4909047;28;96719;-50
2023/01/17 09:00:13;;;;;;;1.33;0.93;;;;;;;6.39;65.47;98235.00;4907123;28;97363;-51
2023/01/17 09:02:39;;;;;;;1.33;0.60;;;;;;;6.37;65.29;98237.53;4909862;28;96803;-50
2023/01/17 09:05:05;;;;;;;1.37;0.70;;;;;;;6.33;65.43;98250.75;4916637;28;97117;-50
2023/01/17 09:07:30;;;;;;;0.93;0.73;;;;;;;6.33;64.99;98256.22;4907477;28;97262;-50
2023/01/17 09:09:55;;;;;;;0.93;0.43;;;;;;;6.31;65.33;98270.38;4909176;28;97144;-50
2023/01/17 09:12:21;;;;;;;0.80;0.53;;;;;;;6.28;65.21;98267.94;4908706;28;97026;-50
2023/01/17 09:14:47;;;;;;;1.40;0.80;;;;;;;6.28;65.33;98270.69;4908146;28;96764;-49
2023/01/17 09:17:13;;;;;;;0.70;0.70;;;;;;;6.26;65.52;98281.38;4907855;28;97390;-50
2023/01/17 09:19:42;;;;;;;2.50;0.90;;;;;;;6.26;65.40;98284.88;4926910;28;99231;-50
2023/01/17 09:22:08;;;;;;;4.63;0.77;;;;;;;6.26;65.03;98284.13;4907569;28;97217;-50
2023/01/17 09:24:34;;;;;;;0.70;0.50;;;;;;;6.24;65.46;98283.91;4907806;28;96633;-50
2023/01/17 09:26:59;;;;;;;1.10;0.50;;;;;;;6.23;65.69;98285.88;4906621;28;97223;-50
2023/01/17 09:29:25;;;;;;;7.60;1.20;;;;;;;6.22;65.30;98292.63;4906021;28;97086;-50
2023/01/17 09:31:50;;;;;;;0.80;0.53;;;;;;;6.25;65.40;98294.28;4907692;28;96810;-50
2023/01/17 09:34:17;;;;;;;0.70;0.70;;;;;;;6.27;65.09;98297.25;4910069;28;97643;-50
2023/01/17 09:36:42;;;;;;;3.90;1.10;;;;;;;6.31;65.21;98302.41;4907905;28;97354;-50
2023/01/17 09:39:09;;;;;;;3.70;0.50;;;;;;;6.30;65.30;98290.00;4907539;28;97673;-50
2023/01/17 09:42:19;;;;;;;2.77;1.00;;;;;;;6.32;65.25;98299.16;4916380;28;97402;-50
2023/01/17 09:44:50;;;;;;;2.20;0.50;;;;;;;6.33;65.22;98297.16;4904427;28;97563;-50
2023/01/17 09:47:31;;;;;;;2.10;0.77;;;;;;;6.34;64.91;98302.09;4909093;28;97122;-50
2023/01/17 09:50:06;;;;;;;2.90;0.80;;;;;;;6.37;65.08;98300.31;4915060;28;97037;-49
2023/01/17 09:52:32;;;;;;;3.07;0.70;;;;;;;6.46;65.51;98306.16;4909478;28;96664;-50
2023/01/17 09:54:58;;;;;;;2.00;1.10;;;;;;;6.51;65.27;98307.31;4913480;28;97175;-50
2023/01/17 09:57:48;;;;;;;3.40;1.00;;;;;;;6.56;64.81;98311.94;4930278;28;97957;-50
2023/01/17 10:00:41;;;;;;;0.73;0.73;;;;;;;6.58;64.76;98309.41;4912576;28;96656;-50
2023/01/17 10:03:36;;;;;;;2.83;0.87;;;;;;;6.58;64.99;98312.88;4910114;28;96912;-50
2023/01/17 10:06:21;;;;;;;3.73;1.07;;;;;;;6.59;64.94;98314.38;4911172;28;96957;-50
2023/01/17 10:08:59;;;;;;;5.37;0.53;;;;;;;6.59;64.61;98322.56;4909137;28;96676;-50
2023/01/17 10:11:30;;;;;;;3.30;0.50;;;;;;;6.64;64.92;98315.53;4914246;28;96671;-50
2023/01/17 10:14:13;;;;;;;4.10;0.70;;;;;;;6.66;64.50;98318.50;4910640;28;99426;-50
2023/01/17 10:16:41;;;;;;;1.53;0.60;;;;;;;6.67;64.67;98319.94;4909193;28;96680;-50
2023/01/17 10:19:09;;;;;;;0.90;0.77;;;;;;;6.68;64.63;98335.09;4915811;28;97301;-50
2023/01/17 10:22:06;;;;;;;0.60;0.50;;;;;;;6.70;64.11;98327.84;4912920;28;97164;-50
2023/01/17 10:25:05;;;;;;;1.77;0.77;;;;;;;6.67;64.33;98328.88;4911376;28;97092;-50
2023/01/17 10:27:38;;;;;;;1.43;0.60;;;;;;;6.66;64.47;98332.16;4913136;28;97180;-49
2023/01/17 10:30:15;;;;;;;3.37;0.77;;;;;;;6.66;64.38;98329.41;4907982;28;96995;-50
2023/01/17 10:32:46;;;;;;;3.43;0.60;;;;;;;6.64;64.44;98334.66;4913222;28;96902;-50
2023/01/17 10:35:19;;;;;;;1.27;0.70;;;;;;;6.66;64.34;98332.16;4914456;28;97226;-50
2023/01/17 10:37:46;;;;;;;2.33;0.73;;;;;;;6.67;64.36;98325.41;4908173;28;97161;-50
2023/01/17 10:40:23;;;;;;;1.40;0.70;;;;;;;6.71;64.75;98332.03;4910540;28;97011;-50
2023/01/17 10:43:17;;;;;;;1.23;0.80;;;;;;;6.67;63.31;98334.34;4916539;28;97181;-50
2023/01/17 10:45:50;;;;;;;1.57;0.70;;;;;;;6.66;64.63;98332.88;4911301;28;97699;-50
2023/01/17 10:48:22;;;;;;;1.40;0.80;;;;;;;6.72;64.24;98339.00;4916311;28;96970;-50
2023/01/17 10:51:10;;;;;;;1.17;0.40;;;;;;;6.79;64.04;98337.66;4916655;28;97543;-49
2023/01/17 10:53:48;;;;;;;3.20;1.17;;;;;;;6.82;63.95;98334.59;4916436;28;97357;-49
2023/01/17 10:56:17;;;;;;;3.10;0.53;;;;;;;6.87;64.15;98335.75;4917420;28;97195;-49
2023/01/17 10:58:42;;;;;;;1.80;0.70;;;;;;;6.91;64.06;98357.31;4911965;28;97213;-50
2023/01/17 11:01:19;;;;;;;1.73;0.80;;;;;;;6.93;63.44;98344.59;4908910;28;96860;-50
2023/01/17 11:03:53;;;;;;;1.40;0.70;;;;;;;6.95;63.67;98347.53;4912121;28;96993;-50
2023/01/17 11:06:23;;;;;;;0.63;0.40;;;;;;;6.99;63.78;98353.44;4910186;28;97136;-50
2023/01/17 11:08:55;;;;;;;1.10;0.70;;;;;;;7.00;63.97;98343.97;4906555;28;99218;-49
2023/01/17 11:11:31;;;;;;;2.10;0.70;;;;;;;7.01;64.01;98350.91;4913271;28;97331;-50
2023/01/17 11:13:59;;;;;;;0.60;0.50;;;;;;;7.09;63.72;98340.84;4910638;28;97676;-50
2023/01/17 11:16:30;;;;;;;0.60;0.57;;;;;;;7.12;63.81;98347.25;4906171;28;96688;-50
2023/01/17 11:19:13;;;;;;;1.13;0.70;;;;;;;7.10;62.73;98345.03;4912959;28;97230;-50
2023/01/17 11:21:47;;;;;;;4.20;0.63;;;;;;;7.14;63.31;98352.94;4913600;28;97893;-50
2023/01/17 11:24:19;;;;;;;5.43;0.60;;;;;;;7.19;63.51;98349.34;4910428;28;97656;-50
2023/01/17 11:26:48;;;;;;;4.33;0.80;;;;;;;7.26;63.27;98354.19;4911065;28;96825;-50
2023/01/17 11:29:32;;;;;;;1.00;0.50;;;;;;;7.28;62.58;98346.94;4909562;28;96666;-50
2023/01/17 11:32:27;;;;;;;1.80;0.50;;;;;;;7.31;62.51;98345.91;4908875;28;97435;-49
2023/01/17 11:35:14;;;;;;;1.67;0.70;;;;;;;7.34;62.18;98352.31;4915309;28;97107;-50
2023/01/17 11:37:48;;;;;;;6.83;0.90;;;;;;;7.36;62.64;98353.25;4910863;28;96983;-50
2023/01/17 11:40:26;;;;;;;2.10;0.50;;;;;;;7.39;62.45;98348.72;4915447;28;97076;-50
2023/01/17 11:43:13;;;;;;;6.00;0.90;;;;;;;7.41;63.14;98346.94;4912992;28;98901;-49
2023/01/17 11:45:39;;;;;;;2.03;0.80;;;;;;;7.54;63.25;98357.88;4906278;28;97131;-50
2023/01/17 11:48:08;;;;;;;1.87;0.70;;;;;;;7.72;62.99;98359.03;4909201;28;97047;-50
2023/01/17 11:50:44;;;;;;;0.80;0.70;;;;;;;7.84;62.50;98356.81;4913396;28;96611;-50
2023/01/17 11:53:20;;;;;;;0.60;0.60;;;;;;;7.93;62.29;98359.13;4906499;28;96993;-50
2023/01/17 11:56:01;;;;;;;0.47;0.40;;;;;;;8.04;61.77;98361.59;4911119;28;97223;-50
2023/01/17 11:58:27;;;;;;;2.93;0.70;;;;;;;8.18;62.27;98363.06;4909317;28;97670;-50
2023/01/17 12:01:16;;;;;;;0.67;0.50;;;;;;;8.23;61.96;98364.94;4908313;28;97155;-50
2023/01/17 12:04:07;;;;;;;1.07;0.50;;;;;;;8.27;60.68;98368.84;4911948;28;96986;-50
2023/01/17 12:07:03;;;;;;;1.27;0.50;;;;;;;8.11;59.84;98378.13;4906528;28;97057;-50
2023/01/17 12:09:57;;;;;;;2.40;0.60;;;;;;;8.07;61.01;98368.75;4906758;28;97170;-50
2023/01/17 12:15:34;;;;;;;1.87;0.60;;;;;;;7.96;61.17;98377.22;4904867;28;97133;-50
2023/01/17 12:18:07;;;;;;;2.00;0.57;;;;;;;7.96;61.45;98380.69;4908356;28;97713;-50
2023/01/17 12:20:54;;;;;;;0.90;0.60;;;;;;;7.99;60.48;98379.63;4911492;28;96672;-50
2023/01/17 12:23:44;;;;;;;1.47;0.60;;;;;;;7.97;60.60;98382.16;4907318;28;97426;-50
2023/01/17 12:26:22;;;;;;;1.67;0.50;;;;;;;7.96;61.63;98380.69;4911231;28;97159;-50
2023/01/17 12:29:03;;;;;;;1.73;0.93;;;;;;;7.94;60.70;98380.47;4908107;28;96954;-50
2023/01/17 12:31:33;;;;;;;1.13;0.67;;;;;;;7.94;61.37;98371.53;4907158;28;97205;-50
2023/01/17 12:33:59;;;;;;;0.70;0.70;;;;;;;7.93;61.00;98375.53;4911390;28;96997;-50
2023/01/17 12:36:41;;;;;;;1.43;0.50;;;;;;;7.94;60.17;98377.00;4910550;28;97429;-50
2023/01/17 12:39:10;;;;;;;0.87;0.50;;;;;;;7.93;61.38;98381.03;4911201;28;97613;-49
2023/01/17 12:41:41;;;;;;;1.17;0.73;;;;;;;7.96;60.83;98382.69;4912705;28;97091;-49
2023/01/17 12:44:12;;;;;;;1.57;1.30;;;;;;;8.02;61.30;98389.50;4905617;28;97049;-50
2023/01/17 12:46:48;;;;;;;3.07;0.70;;;;;;;8.13;61.07;98386.53;4908666;28;97006;-49
2023/01/17 12:49:16;;;;;;;0.50;0.50;;;;;;;8.27;61.43;98390.75;4914331;28;97051;-50
2023/01/17 12:51:45;;;;;;;2.50;1.00;;;;;;;8.30;60.75;98392.44;4908236;28;96613;-50
2023/01/17 12:54:17;;;;;;;3.00;0.70;;;;;;;8.26;60.59;98391.28;4910024;28;96646;-49
2023/01/17 12:56:58;;;;;;;0.60;0.60;;;;;;;8.28;60.02;98388.75;4908995;28;97216;-50
2023/01/17 12:59:46;;;;;;;1.17;0.50;;;;;;;8.28;59.53;98384.00;4906330;28;97699;-49
2023/01/17 13:02:23;;;;;;;1.60;0.60;;;;;;;8.34;60.50;98389.38;4908369;28;97156;-50
2023/01/17 13:05:07;;;;;;;0.90;0.60;;;;;;;8.31;58.84;98384.94;4909322;28;96789;-50
2023/01/17 13:08:06;;;;;;;1.13;0.50;;;;;;;8.28;59.32;98389.47;4907562;28;97399;-50
2023/01/17 13:10:50;;;;;;;1.73;0.60;;;;;;;8.36;59.09;98392.31;4907337;28;96749;-50
2023/01/17 13:13:22;;;;;;;0.50;0.40;;;;;;;8.40;59.83;98384.50;4909905;28;96853;-50
2023/01/17 13:16:08;;;;;;;2.80;0.60;;;;;;;8.39;60.01;98393.97;4906551;28;96916;-50
2023/01/17 13:18:35;;;;;;;0.70;0.70;;;;;;;8.38;60.43;98397.25;4919018;28;96774;-50